Big Brook, Canada
Current Conditions -  °F | °C
As of 5:00 PM on Monday 24 Nov 2014 (Local Time) from CYAY Reporting Station
Overcast Overcast  
Wind Chill: 16°   Ceiling: 10000
Heat Index: 23°   Visibility: 9mi
Dew Point: 16°   Wind: 6mph
Humidity: 74%   Direction: 180°S
Pressure: 30.25"   Gusts: NA
Location:  51.51°N, 56.14°W
Report Text: CYAY 242000Z AUTO 18005KT 9SM OVC100 M05/M09 A3025 RMK SLP247
Loading
Personal Weather Stations






























Interactive Weather Map New forecast layout! Learn more

10-Day Weather Forecast

Advertisements
Track Severe Weather on mobile